sensor_id;sensor_type;location;lat;lon;timestamp;P1;durP1;ratioP1;P2;durP2;ratioP2
12912;SDS011;6524;51.368;11.984;2022-12-18T00:01:20;49.60;;;24.97;;
12912;SDS011;6524;51.368;11.984;2022-12-18T00:06:23;51.60;;;26.37;;
12912;SDS011;6524;51.368;11.984;2022-12-18T00:11:26;43.93;;;24.17;;
12912;SDS011;6524;51.368;11.984;2022-12-18T00:16:28;53.27;;;26.13;;
12912;SDS011;6524;51.368;11.984;2022-12-18T00:21:30;58.90;;;28.30;;
12912;SDS011;6524;51.368;11.984;2022-12-18T00:26:33;54.07;;;27.47;;
12912;SDS011;6524;51.368;11.984;2022-12-18T00:31:34;61.87;;;28.77;;
12912;SDS011;6524;51.368;11.984;2022-12-18T00:36:34;57.17;;;28.60;;
12912;SDS011;6524;51.368;11.984;2022-12-18T00:41:35;58.23;;;27.97;;
12912;SDS011;6524;51.368;11.984;2022-12-18T00:47:01;60.60;;;28.73;;
12912;SDS011;6524;51.368;11.984;2022-12-18T00:52:02;53.27;;;27.47;;
12912;SDS011;6524;51.368;11.984;2022-12-18T00:57:02;56.87;;;27.40;;
12912;SDS011;6524;51.368;11.984;2022-12-18T05:05:02;44.40;;;22.03;;
12912;SDS011;6524;51.368;11.984;2022-12-18T05:10:05;43.90;;;21.00;;
12912;SDS011;6524;51.368;11.984;2022-12-18T05:15:06;45.40;;;22.13;;
12912;SDS011;6524;51.368;11.984;2022-12-18T05:20:07;45.10;;;22.47;;
12912;SDS011;6524;51.368;11.984;2022-12-18T05:25:08;42.87;;;22.37;;
12912;SDS011;6524;51.368;11.984;2022-12-18T05:30:09;46.17;;;22.47;;
12912;SDS011;6524;51.368;11.984;2022-12-18T05:35:10;48.30;;;22.30;;
12912;SDS011;6524;51.368;11.984;2022-12-18T05:40:11;42.83;;;21.30;;
12912;SDS011;6524;51.368;11.984;2022-12-18T05:45:11;46.37;;;22.13;;
12912;SDS011;6524;51.368;11.984;2022-12-18T05:50:11;46.05;;;22.70;;
12912;SDS011;6524;51.368;11.984;2022-12-18T05:55:12;45.60;;;21.67;;
12912;SDS011;6524;51.368;11.984;2022-12-18T06:00:12;44.07;;;21.77;;
12912;SDS011;6524;51.368;11.984;2022-12-18T06:05:13;44.53;;;21.30;;
12912;SDS011;6524;51.368;11.984;2022-12-18T06:10:13;41.60;;;20.10;;
12912;SDS011;6524;51.368;11.984;2022-12-18T06:15:14;41.87;;;20.57;;
12912;SDS011;6524;51.368;11.984;2022-12-18T06:20:15;40.93;;;21.30;;
12912;SDS011;6524;51.368;11.984;2022-12-18T06:25:17;40.17;;;20.30;;
12912;SDS011;6524;51.368;11.984;2022-12-18T06:30:18;40.97;;;21.30;;
12912;SDS011;6524;51.368;11.984;2022-12-18T06:35:18;45.80;;;22.33;;
12912;SDS011;6524;51.368;11.984;2022-12-18T06:40:18;50.95;;;22.63;;
12912;SDS011;6524;51.368;11.984;2022-12-18T06:45:19;49.57;;;22.47;;
12912;SDS011;6524;51.368;11.984;2022-12-18T06:50:19;51.13;;;21.50;;
12912;SDS011;6524;51.368;11.984;2022-12-18T06:55:19;40.73;;;21.57;;
12912;SDS011;6524;51.368;11.984;2022-12-18T07:00:23;37.03;;;18.73;;
12912;SDS011;6524;51.368;11.984;2022-12-18T07:05:23;47.83;;;22.10;;
12912;SDS011;6524;51.368;11.984;2022-12-18T07:10:24;36.87;;;18.80;;
12912;SDS011;6524;51.368;11.984;2022-12-18T07:15:24;32.50;;;16.00;;
12912;SDS011;6524;51.368;11.984;2022-12-18T07:20:25;37.80;;;17.67;;
12912;SDS011;6524;51.368;11.984;2022-12-18T07:25:25;39.37;;;19.87;;
12912;SDS011;6524;51.368;11.984;2022-12-18T07:30:26;36.60;;;17.87;;
12912;SDS011;6524;51.368;11.984;2022-12-18T07:35:28;34.97;;;17.67;;
12912;SDS011;6524;51.368;11.984;2022-12-18T07:40:29;32.63;;;17.03;;
12912;SDS011;6524;51.368;11.984;2022-12-18T07:45:32;38.23;;;18.73;;
12912;SDS011;6524;51.368;11.984;2022-12-18T07:50:32;38.93;;;18.63;;
12912;SDS011;6524;51.368;11.984;2022-12-18T07:55:32;39.97;;;19.40;;
12912;SDS011;6524;51.368;11.984;2022-12-18T08:00:33;39.57;;;20.23;;
12912;SDS011;6524;51.368;11.984;2022-12-18T08:05:34;40.17;;;19.23;;
12912;SDS011;6524;51.368;11.984;2022-12-18T08:10:34;40.13;;;18.73;;
12912;SDS011;6524;51.368;11.984;2022-12-18T08:15:35;42.83;;;20.17;;
12912;SDS011;6524;51.368;11.984;2022-12-18T08:20:57;32.27;;;16.77;;
12912;SDS011;6524;51.368;11.984;2022-12-18T08:25:58;36.10;;;17.73;;
12912;SDS011;6524;51.368;11.984;2022-12-18T08:30:58;32.50;;;17.63;;
12912;SDS011;6524;51.368;11.984;2022-12-18T08:35:59;29.13;;;15.60;;
12912;SDS011;6524;51.368;11.984;2022-12-18T08:41:03;29.17;;;16.33;;
12912;SDS011;6524;51.368;11.984;2022-12-18T08:46:06;32.57;;;18.43;;
12912;SDS011;6524;51.368;11.984;2022-12-18T08:51:06;33.00;;;18.00;;
12912;SDS011;6524;51.368;11.984;2022-12-18T08:56:13;36.60;;;18.50;;
12912;SDS011;6524;51.368;11.984;2022-12-18T09:01:36;40.23;;;18.83;;
12912;SDS011;6524;51.368;11.984;2022-12-18T09:07:00;32.47;;;17.33;;
12912;SDS011;6524;51.368;11.984;2022-12-18T09:12:06;28.60;;;16.40;;
12912;SDS011;6524;51.368;11.984;2022-12-18T09:17:10;27.33;;;15.07;;
12912;SDS011;6524;51.368;11.984;2022-12-18T09:22:10;29.60;;;15.83;;
12912;SDS011;6524;51.368;11.984;2022-12-18T09:27:10;31.00;;;17.37;;
12912;SDS011;6524;51.368;11.984;2022-12-18T09:32:11;28.77;;;14.73;;
12912;SDS011;6524;51.368;11.984;2022-12-18T09:37:11;25.27;;;14.67;;
12912;SDS011;6524;51.368;11.984;2022-12-18T09:42:18;25.97;;;14.43;;
12912;SDS011;6524;51.368;11.984;2022-12-18T09:47:25;22.83;;;12.90;;
12912;SDS011;6524;51.368;11.984;2022-12-18T09:52:41;19.97;;;12.77;;
12912;SDS011;6524;51.368;11.984;2022-12-18T09:57:49;22.67;;;12.90;;
12912;SDS011;6524;51.368;11.984;2022-12-18T10:03:03;24.40;;;13.20;;
12912;SDS011;6524;51.368;11.984;2022-12-18T10:18:51;20.27;;;12.27;;
12912;SDS011;6524;51.368;11.984;2022-12-18T10:24:14;16.93;;;11.17;;
12912;SDS011;6524;51.368;11.984;2022-12-18T10:29:25;18.43;;;11.33;;
12912;SDS011;6524;51.368;11.984;2022-12-18T10:34:25;16.47;;;10.40;;
12912;SDS011;6524;51.368;11.984;2022-12-18T10:39:26;15.37;;;9.87;;
12912;SDS011;6524;51.368;11.984;2022-12-18T10:44:26;16.50;;;10.23;;
12912;SDS011;6524;51.368;11.984;2022-12-18T10:49:47;16.13;;;11.03;;
12912;SDS011;6524;51.368;11.984;2022-12-18T10:54:55;14.20;;;9.77;;
12912;SDS011;6524;51.368;11.984;2022-12-18T11:00:20;16.47;;;10.63;;
12912;SDS011;6524;51.368;11.984;2022-12-18T11:05:46;18.70;;;10.73;;
12912;SDS011;6524;51.368;11.984;2022-12-18T11:11:27;17.23;;;10.87;;
12912;SDS011;6524;51.368;11.984;2022-12-18T11:22:21;17.63;;;11.33;;
12912;SDS011;6524;51.368;11.984;2022-12-18T11:27:26;15.53;;;10.30;;
12912;SDS011;6524;51.368;11.984;2022-12-18T11:32:32;15.37;;;11.03;;
12912;SDS011;6524;51.368;11.984;2022-12-18T11:37:36;17.60;;;12.70;;
12912;SDS011;6524;51.368;11.984;2022-12-18T11:42:39;16.57;;;11.13;;
12912;SDS011;6524;51.368;11.984;2022-12-18T11:47:43;17.07;;;10.97;;
12912;SDS011;6524;51.368;11.984;2022-12-18T11:53:03;14.53;;;10.60;;
12912;SDS011;6524;51.368;11.984;2022-12-18T11:58:07;14.53;;;10.97;;
12912;SDS011;6524;51.368;11.984;2022-12-18T12:03:21;15.57;;;10.17;;
12912;SDS011;6524;51.368;11.984;2022-12-18T12:30:14;13.77;;;9.20;;
12912;SDS011;6524;51.368;11.984;2022-12-18T12:40:46;11.53;;;8.67;;
12912;SDS011;6524;51.368;11.984;2022-12-18T12:45:57;12.03;;;8.93;;
12912;SDS011;6524;51.368;11.984;2022-12-18T12:56:21;12.53;;;9.03;;
12912;SDS011;6524;51.368;11.984;2022-12-18T13:01:34;11.83;;;9.07;;
12912;SDS011;6524;51.368;11.984;2022-12-18T13:12:37;11.90;;;8.80;;
12912;SDS011;6524;51.368;11.984;2022-12-18T13:18:19;13.30;;;9.07;;
12912;SDS011;6524;51.368;11.984;2022-12-18T13:28:23;11.67;;;7.73;;
12912;SDS011;6524;51.368;11.984;2022-12-18T13:33:46;13.93;;;8.97;;
12912;SDS011;6524;51.368;11.984;2022-12-18T13:38:46;13.00;;;9.53;;
12912;SDS011;6524;51.368;11.984;2022-12-18T13:44:10;11.90;;;8.40;;
12912;SDS011;6524;51.368;11.984;2022-12-18T14:04:25;9.87;;;8.17;;
12912;SDS011;6524;51.368;11.984;2022-12-18T14:09:31;12.03;;;8.77;;
12912;SDS011;6524;51.368;11.984;2022-12-18T14:14:36;14.50;;;10.20;;
12912;SDS011;6524;51.368;11.984;2022-12-18T14:19:36;15.23;;;10.70;;
12912;SDS011;6524;51.368;11.984;2022-12-18T14:24:37;16.83;;;11.40;;
12912;SDS011;6524;51.368;11.984;2022-12-18T14:29:38;16.53;;;13.00;;
12912;SDS011;6524;51.368;11.984;2022-12-18T14:34:51;17.97;;;13.00;;
12912;SDS011;6524;51.368;11.984;2022-12-18T14:39:57;15.03;;;11.50;;
12912;SDS011;6524;51.368;11.984;2022-12-18T14:50:41;17.83;;;11.77;;
12912;SDS011;6524;51.368;11.984;2022-12-18T14:55:44;16.10;;;11.90;;
12912;SDS011;6524;51.368;11.984;2022-12-18T15:00:49;15.90;;;12.30;;
12912;SDS011;6524;51.368;11.984;2022-12-18T15:05:52;18.27;;;12.53;;
12912;SDS011;6524;51.368;11.984;2022-12-18T15:10:54;15.80;;;11.80;;
12912;SDS011;6524;51.368;11.984;2022-12-18T15:16:00;15.93;;;11.80;;
12912;SDS011;6524;51.368;11.984;2022-12-18T15:21:08;18.93;;;12.93;;
12912;SDS011;6524;51.368;11.984;2022-12-18T15:26:11;14.80;;;10.50;;
12912;SDS011;6524;51.368;11.984;2022-12-18T15:36:17;25.63;;;14.97;;
12912;SDS011;6524;51.368;11.984;2022-12-18T15:41:22;35.50;;;22.40;;
12912;SDS011;6524;51.368;11.984;2022-12-18T15:46:26;15.03;;;11.67;;
12912;SDS011;6524;51.368;11.984;2022-12-18T15:51:28;15.07;;;11.07;;
12912;SDS011;6524;51.368;11.984;2022-12-18T15:56:35;17.77;;;11.37;;
12912;SDS011;6524;51.368;11.984;2022-12-18T16:01:54;15.83;;;12.00;;
12912;SDS011;6524;51.368;11.984;2022-12-18T16:06:54;16.97;;;11.67;;
12912;SDS011;6524;51.368;11.984;2022-12-18T16:11:55;16.40;;;11.70;;
12912;SDS011;6524;51.368;11.984;2022-12-18T16:16:59;18.10;;;12.90;;
12912;SDS011;6524;51.368;11.984;2022-12-18T16:27:49;20.50;;;14.37;;
12912;SDS011;6524;51.368;11.984;2022-12-18T16:32:52;20.70;;;14.30;;
12912;SDS011;6524;51.368;11.984;2022-12-18T16:37:56;21.10;;;15.13;;
12912;SDS011;6524;51.368;11.984;2022-12-18T16:42:57;23.00;;;15.53;;
12912;SDS011;6524;51.368;11.984;2022-12-18T16:47:57;19.33;;;14.23;;
12912;SDS011;6524;51.368;11.984;2022-12-18T16:52:58;20.73;;;14.20;;
12912;SDS011;6524;51.368;11.984;2022-12-18T16:57:58;23.07;;;14.87;;
12912;SDS011;6524;51.368;11.984;2022-12-18T17:03:05;24.67;;;15.53;;
12912;SDS011;6524;51.368;11.984;2022-12-18T17:08:05;24.13;;;15.97;;
12912;SDS011;6524;51.368;11.984;2022-12-18T17:13:06;23.53;;;17.13;;
12912;SDS011;6524;51.368;11.984;2022-12-18T17:18:09;28.03;;;17.10;;
12912;SDS011;6524;51.368;11.984;2022-12-18T17:23:09;24.70;;;16.10;;
12912;SDS011;6524;51.368;11.984;2022-12-18T17:28:09;25.70;;;16.20;;
12912;SDS011;6524;51.368;11.984;2022-12-18T17:33:10;26.00;;;16.37;;
12912;SDS011;6524;51.368;11.984;2022-12-18T17:38:11;24.05;;;16.60;;
12912;SDS011;6524;51.368;11.984;2022-12-18T17:43:11;27.57;;;16.43;;
12912;SDS011;6524;51.368;11.984;2022-12-18T17:48:12;30.53;;;17.80;;
12912;SDS011;6524;51.368;11.984;2022-12-18T17:53:12;26.20;;;16.57;;
12912;SDS011;6524;51.368;11.984;2022-12-18T17:58:12;27.17;;;17.52;;
12912;SDS011;6524;51.368;11.984;2022-12-18T18:03:13;28.53;;;18.07;;
12912;SDS011;6524;51.368;11.984;2022-12-18T18:08:13;30.77;;;19.57;;
12912;SDS011;6524;51.368;11.984;2022-12-18T18:13:18;34.33;;;19.60;;
12912;SDS011;6524;51.368;11.984;2022-12-18T18:18:38;29.43;;;18.30;;
12912;SDS011;6524;51.368;11.984;2022-12-18T18:23:39;28.27;;;18.30;;
12912;SDS011;6524;51.368;11.984;2022-12-18T18:28:39;26.87;;;17.03;;
12912;SDS011;6524;51.368;11.984;2022-12-18T18:33:40;27.57;;;17.93;;
12912;SDS011;6524;51.368;11.984;2022-12-18T18:38:40;27.20;;;18.30;;
12912;SDS011;6524;51.368;11.984;2022-12-18T18:43:41;27.23;;;17.80;;
12912;SDS011;6524;51.368;11.984;2022-12-18T18:48:41;28.17;;;18.03;;
12912;SDS011;6524;51.368;11.984;2022-12-18T18:53:42;26.07;;;17.90;;
12912;SDS011;6524;51.368;11.984;2022-12-18T18:58:44;25.67;;;16.87;;
12912;SDS011;6524;51.368;11.984;2022-12-18T19:03:45;25.17;;;17.40;;
12912;SDS011;6524;51.368;11.984;2022-12-18T19:08:46;29.40;;;17.23;;
12912;SDS011;6524;51.368;11.984;2022-12-18T19:13:47;29.37;;;17.60;;
12912;SDS011;6524;51.368;11.984;2022-12-18T19:18:47;25.50;;;17.40;;
12912;SDS011;6524;51.368;11.984;2022-12-18T19:23:48;25.33;;;16.63;;
12912;SDS011;6524;51.368;11.984;2022-12-18T19:28:48;29.10;;;17.23;;
12912;SDS011;6524;51.368;11.984;2022-12-18T19:33:49;28.40;;;16.27;;
12912;SDS011;6524;51.368;11.984;2022-12-18T19:38:49;26.20;;;16.90;;
12912;SDS011;6524;51.368;11.984;2022-12-18T19:43:51;24.00;;;15.67;;
12912;SDS011;6524;51.368;11.984;2022-12-18T19:48:51;26.07;;;17.17;;
12912;SDS011;6524;51.368;11.984;2022-12-18T19:53:52;23.50;;;15.77;;
12912;SDS011;6524;51.368;11.984;2022-12-18T19:58:53;22.77;;;14.80;;
12912;SDS011;6524;51.368;11.984;2022-12-18T20:03:54;24.03;;;15.40;;
12912;SDS011;6524;51.368;11.984;2022-12-18T20:08:55;20.73;;;14.10;;
12912;SDS011;6524;51.368;11.984;2022-12-18T20:14:01;21.43;;;14.67;;
12912;SDS011;6524;51.368;11.984;2022-12-18T20:19:05;21.13;;;14.07;;
12912;SDS011;6524;51.368;11.984;2022-12-18T20:24:07;19.87;;;13.97;;
12912;SDS011;6524;51.368;11.984;2022-12-18T20:29:07;18.70;;;13.33;;
12912;SDS011;6524;51.368;11.984;2022-12-18T20:34:08;22.20;;;14.17;;
12912;SDS011;6524;51.368;11.984;2022-12-18T20:39:09;24.17;;;14.70;;
12912;SDS011;6524;51.368;11.984;2022-12-18T20:44:14;22.43;;;14.40;;
12912;SDS011;6524;51.368;11.984;2022-12-18T20:49:16;21.30;;;12.77;;
12912;SDS011;6524;51.368;11.984;2022-12-18T20:54:20;22.30;;;13.97;;
12912;SDS011;6524;51.368;11.984;2022-12-18T20:59:21;22.00;;;13.67;;
12912;SDS011;6524;51.368;11.984;2022-12-18T21:04:24;17.20;;;12.90;;
12912;SDS011;6524;51.368;11.984;2022-12-18T21:09:24;21.60;;;13.97;;
12912;SDS011;6524;51.368;11.984;2022-12-18T21:14:26;22.88;;;14.32;;
12912;SDS011;6524;51.368;11.984;2022-12-18T21:19:28;20.93;;;13.47;;
12912;SDS011;6524;51.368;11.984;2022-12-18T21:24:29;20.13;;;13.03;;
12912;SDS011;6524;51.368;11.984;2022-12-18T21:29:29;20.40;;;13.57;;
12912;SDS011;6524;51.368;11.984;2022-12-18T21:34:31;22.10;;;13.40;;
12912;SDS011;6524;51.368;11.984;2022-12-18T21:39:32;25.57;;;13.93;;
12912;SDS011;6524;51.368;11.984;2022-12-18T21:44:32;22.33;;;13.10;;
12912;SDS011;6524;51.368;11.984;2022-12-18T21:49:32;23.40;;;12.67;;
12912;SDS011;6524;51.368;11.984;2022-12-18T21:54:33;19.27;;;12.23;;
12912;SDS011;6524;51.368;11.984;2022-12-18T21:59:35;19.10;;;12.77;;
12912;SDS011;6524;51.368;11.984;2022-12-18T22:04:39;21.40;;;12.90;;
12912;SDS011;6524;51.368;11.984;2022-12-18T22:09:40;17.70;;;11.27;;
12912;SDS011;6524;51.368;11.984;2022-12-18T22:14:41;19.23;;;11.30;;
12912;SDS011;6524;51.368;11.984;2022-12-18T22:19:41;17.73;;;12.05;;
12912;SDS011;6524;51.368;11.984;2022-12-18T22:24:41;18.58;;;11.40;;
12912;SDS011;6524;51.368;11.984;2022-12-18T22:29:41;17.83;;;11.63;;
12912;SDS011;6524;51.368;11.984;2022-12-18T22:35:02;16.03;;;10.57;;
12912;SDS011;6524;51.368;11.984;2022-12-18T22:40:04;17.13;;;11.93;;
12912;SDS011;6524;51.368;11.984;2022-12-18T22:45:05;15.60;;;11.30;;
12912;SDS011;6524;51.368;11.984;2022-12-18T22:50:06;17.03;;;11.40;;
12912;SDS011;6524;51.368;11.984;2022-12-18T22:55:06;16.23;;;10.33;;
12912;SDS011;6524;51.368;11.984;2022-12-18T23:00:07;17.63;;;12.03;;
12912;SDS011;6524;51.368;11.984;2022-12-18T23:05:08;16.50;;;10.57;;
12912;SDS011;6524;51.368;11.984;2022-12-18T23:10:09;16.47;;;11.47;;
12912;SDS011;6524;51.368;11.984;2022-12-18T23:15:09;19.63;;;11.50;;
12912;SDS011;6524;51.368;11.984;2022-12-18T23:20:09;16.17;;;10.40;;
12912;SDS011;6524;51.368;11.984;2022-12-18T23:25:10;18.07;;;10.63;;
12912;SDS011;6524;51.368;11.984;2022-12-18T23:30:11;16.10;;;10.33;;
12912;SDS011;6524;51.368;11.984;2022-12-18T23:35:11;16.63;;;11.03;;
12912;SDS011;6524;51.368;11.984;2022-12-18T23:40:12;15.00;;;10.70;;
12912;SDS011;6524;51.368;11.984;2022-12-18T23:45:13;15.83;;;10.63;;
12912;SDS011;6524;51.368;11.984;2022-12-18T23:50:13;18.13;;;10.47;;
12912;SDS011;6524;51.368;11.984;2022-12-18T23:55:13;17.20;;;11.00;;
